TimeCDT,TemperatureF,Dew PointF,Humidity,Sea Level PressureIn,VisibilityMPH,Wind Direction,Wind SpeedMPH,Gust SpeedMPH,PrecipitationIn,Events,Conditions,WindDirDegrees,DateUTC
12:53 AM,63.0,57.0,81,29.84,10.0,SSE,5.8,-,N/A,,Clear,150,2012-10-04 05:53:00
1:53 AM,64.0,55.0,73,29.85,10.0,SE,6.9,-,N/A,,Clear,130,2012-10-04 06:53:00
2:53 AM,61.0,55.9,83,29.85,10.0,SE,6.9,-,N/A,,Clear,130,2012-10-04 07:53:00
3:53 AM,60.1,55.0,83,29.85,10.0,SE,5.8,-,N/A,,Clear,130,2012-10-04 08:53:00
4:53 AM,57.9,55.0,90,29.86,10.0,Calm,Calm,-,N/A,,Clear,0,2012-10-04 09:53:00
5:53 AM,55.9,54.0,93,29.87,10.0,Calm,Calm,-,N/A,,Clear,0,2012-10-04 10:53:00
6:53 AM,55.0,53.1,93,29.90,8.0,North,4.6,-,N/A,,Clear,10,2012-10-04 11:53:00
7:53 AM,55.9,54.0,93,29.96,10.0,North,9.2,19.6,N/A,,Clear,360,2012-10-04 12:53:00
8:53 AM,61.0,46.9,60,30.02,7.0,NNE,19.6,26.5,N/A,,Clear,20,2012-10-04 13:53:00
9:17 AM,62.6,44.6,52,30.14,6.0,NNE,23.0,28.8,N/A,,Haze,20,2012-10-04 14:17:00
9:53 AM,63.0,43.0,48,30.06,7.0,NNE,19.6,-,N/A,,Mostly Cloudy,20,2012-10-04 14:53:00
10:01 AM,62.6,42.8,48,30.17,7.0,NNE,19.6,26.5,N/A,,Scattered Clouds,20,2012-10-04 15:01:00
10:53 AM,64.9,43.0,45,30.10,10.0,North,19.6,-,N/A,,Clear,10,2012-10-04 15:53:00
11:53 AM,66.9,43.0,42,30.13,10.0,North,16.1,-,N/A,,Clear,360,2012-10-04 16:53:00
12:53 PM,70.0,43.0,38,30.14,-9999.0,NNW,10.4,19.6,N/A,,Clear,340,2012-10-04 17:53:00
1:53 PM,72.0,44.1,37,30.11,-9999.0,NNW,11.5,-,N/A,,Clear,330,2012-10-04 18:53:00
2:53 PM,73.9,45.0,35,30.08,-9999.0,North,9.2,-,N/A,,Clear,350,2012-10-04 19:53:00
3:53 PM,75.9,45.0,33,30.06,-9999.0,North,10.4,-,N/A,,Clear,10,2012-10-04 20:53:00
4:53 PM,78.1,46.0,32,30.05,-9999.0,NNE,9.2,-,N/A,,Clear,20,2012-10-04 21:53:00
5:53 PM,77.0,46.9,34,30.04,10.0,ENE,3.5,-,N/A,,Clear,60,2012-10-04 22:53:00
6:53 PM,75.0,46.9,37,30.04,10.0,East,5.8,-,N/A,,Clear,100,2012-10-04 23:53:00
7:53 PM,70.0,51.1,51,30.05,10.0,ESE,4.6,-,N/A,,Clear,110,2012-10-05 00:53:00
8:53 PM,66.0,52.0,60,30.05,10.0,ESE,4.6,-,N/A,,Clear,110,2012-10-05 01:53:00
9:53 PM,64.9,51.1,61,30.06,10.0,ESE,4.6,-,N/A,,Clear,110,2012-10-05 02:53:00
10:53 PM,62.1,52.0,70,30.06,10.0,ESE,5.8,-,N/A,,Clear,110,2012-10-05 03:53:00
11:53 PM,61.0,52.0,72,30.06,10.0,ESE,5.8,-,N/A,,Clear,110,2012-10-05 04:53:00